sensor_id;sensor_type;location;lat;lon;timestamp;temperature;humidity
45491;DHT22;31237;45.586;13.782;2023-11-18T00:00:49;8.30;68.70
45491;DHT22;31237;45.586;13.782;2023-11-18T00:03:16;8.30;68.30
45491;DHT22;31237;45.586;13.782;2023-11-18T00:05:42;8.30;68.20
45491;DHT22;31237;45.586;13.782;2023-11-18T00:08:08;8.30;67.90
45491;DHT22;31237;45.586;13.782;2023-11-18T00:10:33;8.30;67.40
45491;DHT22;31237;45.586;13.782;2023-11-18T00:12:59;8.30;67.40
45491;DHT22;31237;45.586;13.782;2023-11-18T00:15:27;8.40;67.30
45491;DHT22;31237;45.586;13.782;2023-11-18T00:17:52;8.40;67.40
45491;DHT22;31237;45.586;13.782;2023-11-18T00:20:18;8.40;67.30
45491;DHT22;31237;45.586;13.782;2023-11-18T00:22:45;8.40;67.10
45491;DHT22;31237;45.586;13.782;2023-11-18T00:25:11;8.30;67.40
45491;DHT22;31237;45.586;13.782;2023-11-18T00:27:39;8.30;67.80
45491;DHT22;31237;45.586;13.782;2023-11-18T00:30:06;8.20;68.10
45491;DHT22;31237;45.586;13.782;2023-11-18T00:32:33;8.20;68.50
45491;DHT22;31237;45.586;13.782;2023-11-18T00:35:01;8.10;69.00
45491;DHT22;31237;45.586;13.782;2023-11-18T00:37:27;8.00;69.20
45491;DHT22;31237;45.586;13.782;2023-11-18T00:39:53;7.90;69.40
45491;DHT22;31237;45.586;13.782;2023-11-18T00:42:18;7.90;69.60
45491;DHT22;31237;45.586;13.782;2023-11-18T00:44:44;7.80;69.60
45491;DHT22;31237;45.586;13.782;2023-11-18T00:47:10;7.80;69.70
45491;DHT22;31237;45.586;13.782;2023-11-18T00:49:35;7.80;70.00
45491;DHT22;31237;45.586;13.782;2023-11-18T00:52:01;7.70;70.20
45491;DHT22;31237;45.586;13.782;2023-11-18T00:54:28;7.70;70.30
45491;DHT22;31237;45.586;13.782;2023-11-18T00:56:54;7.70;70.50
45491;DHT22;31237;45.586;13.782;2023-11-18T00:59:20;7.70;70.60
45491;DHT22;31237;45.586;13.782;2023-11-18T01:01:46;7.60;70.70
45491;DHT22;31237;45.586;13.782;2023-11-18T01:04:11;7.60;70.80
45491;DHT22;31237;45.586;13.782;2023-11-18T01:06:37;7.60;70.80
45491;DHT22;31237;45.586;13.782;2023-11-18T01:09:03;7.60;71.00
45491;DHT22;31237;45.586;13.782;2023-11-18T01:11:29;7.50;71.00
45491;DHT22;31237;45.586;13.782;2023-11-18T01:13:55;7.50;71.10
45491;DHT22;31237;45.586;13.782;2023-11-18T01:16:21;7.50;71.30
45491;DHT22;31237;45.586;13.782;2023-11-18T01:18:47;7.50;71.40
45491;DHT22;31237;45.586;13.782;2023-11-18T01:21:13;7.40;71.50
45491;DHT22;31237;45.586;13.782;2023-11-18T01:23:39;7.40;71.80
45491;DHT22;31237;45.586;13.782;2023-11-18T01:26:10;7.30;71.90
45491;DHT22;31237;45.586;13.782;2023-11-18T01:28:38;7.30;72.10
45491;DHT22;31237;45.586;13.782;2023-11-18T01:31:07;7.30;72.20
45491;DHT22;31237;45.586;13.782;2023-11-18T01:33:38;7.20;72.20
45491;DHT22;31237;45.586;13.782;2023-11-18T01:36:10;7.20;72.30
45491;DHT22;31237;45.586;13.782;2023-11-18T01:38:36;7.20;72.30
45491;DHT22;31237;45.586;13.782;2023-11-18T01:41:06;7.20;72.20
45491;DHT22;31237;45.586;13.782;2023-11-18T01:43:32;7.20;72.30
45491;DHT22;31237;45.586;13.782;2023-11-18T01:46:09;7.20;72.30
45491;DHT22;31237;45.586;13.782;2023-11-18T01:48:37;7.20;72.40
45491;DHT22;31237;45.586;13.782;2023-11-18T01:51:04;7.20;72.60
45491;DHT22;31237;45.586;13.782;2023-11-18T01:53:32;7.20;72.60
45491;DHT22;31237;45.586;13.782;2023-11-18T01:56:01;7.10;72.70
45491;DHT22;31237;45.586;13.782;2023-11-18T01:58:28;7.20;72.70
45491;DHT22;31237;45.586;13.782;2023-11-18T02:00:56;7.10;72.60
45491;DHT22;31237;45.586;13.782;2023-11-18T02:03:22;7.10;72.60
45491;DHT22;31237;45.586;13.782;2023-11-18T02:05:48;7.10;72.60
45491;DHT22;31237;45.586;13.782;2023-11-18T02:08:14;7.10;72.60
45491;DHT22;31237;45.586;13.782;2023-11-18T02:10:48;7.10;72.60
45491;DHT22;31237;45.586;13.782;2023-11-18T02:13:31;7.10;72.60
45491;DHT22;31237;45.586;13.782;2023-11-18T02:15:58;7.10;72.60
45491;DHT22;31237;45.586;13.782;2023-11-18T02:18:29;7.10;72.50
45491;DHT22;31237;45.586;13.782;2023-11-18T02:20:56;7.10;72.60
45491;DHT22;31237;45.586;13.782;2023-11-18T02:23:25;7.10;72.60
45491;DHT22;31237;45.586;13.782;2023-11-18T02:25:55;7.20;72.40
45491;DHT22;31237;45.586;13.782;2023-11-18T02:28:24;7.20;72.30
45491;DHT22;31237;45.586;13.782;2023-11-18T02:30:52;7.20;72.30
45491;DHT22;31237;45.586;13.782;2023-11-18T02:33:35;7.20;72.20
45491;DHT22;31237;45.586;13.782;2023-11-18T02:36:31;7.20;72.30
45491;DHT22;31237;45.586;13.782;2023-11-18T02:39:04;7.20;72.20
45491;DHT22;31237;45.586;13.782;2023-11-18T02:41:38;7.20;72.30
45491;DHT22;31237;45.586;13.782;2023-11-18T02:44:06;7.20;72.30
45491;DHT22;31237;45.586;13.782;2023-11-18T02:46:36;7.20;72.20
45491;DHT22;31237;45.586;13.782;2023-11-18T02:49:04;7.20;72.20
45491;DHT22;31237;45.586;13.782;2023-11-18T02:51:29;7.20;72.10
45491;DHT22;31237;45.586;13.782;2023-11-18T02:53:57;7.20;72.00
45491;DHT22;31237;45.586;13.782;2023-11-18T02:56:23;7.20;71.90
45491;DHT22;31237;45.586;13.782;2023-11-18T02:58:48;7.20;71.80
45491;DHT22;31237;45.586;13.782;2023-11-18T03:01:14;7.30;71.80
45491;DHT22;31237;45.586;13.782;2023-11-18T03:03:40;7.30;71.90
45491;DHT22;31237;45.586;13.782;2023-11-18T03:06:08;7.30;71.90
45491;DHT22;31237;45.586;13.782;2023-11-18T03:08:33;7.30;71.90
45491;DHT22;31237;45.586;13.782;2023-11-18T03:10:59;7.30;72.00
45491;DHT22;31237;45.586;13.782;2023-11-18T03:13:25;7.20;72.00
45491;DHT22;31237;45.586;13.782;2023-11-18T03:15:51;7.20;72.00
45491;DHT22;31237;45.586;13.782;2023-11-18T03:18:17;7.20;72.00
45491;DHT22;31237;45.586;13.782;2023-11-18T03:20:43;7.20;72.10
45491;DHT22;31237;45.586;13.782;2023-11-18T03:23:09;7.10;72.10
45491;DHT22;31237;45.586;13.782;2023-11-18T03:25:35;7.10;72.20
45491;DHT22;31237;45.586;13.782;2023-11-18T03:28:01;7.10;72.20
45491;DHT22;31237;45.586;13.782;2023-11-18T03:30:26;7.20;72.30
45491;DHT22;31237;45.586;13.782;2023-11-18T03:32:54;7.20;72.30
45491;DHT22;31237;45.586;13.782;2023-11-18T03:35:20;7.20;72.30
45491;DHT22;31237;45.586;13.782;2023-11-18T03:37:46;7.20;72.30
45491;DHT22;31237;45.586;13.782;2023-11-18T03:40:13;7.20;72.30
45491;DHT22;31237;45.586;13.782;2023-11-18T03:42:40;7.20;72.30
45491;DHT22;31237;45.586;13.782;2023-11-18T03:45:07;7.20;72.30
45491;DHT22;31237;45.586;13.782;2023-11-18T03:47:33;7.20;72.20
45491;DHT22;31237;45.586;13.782;2023-11-18T03:49:59;7.20;72.20
45491;DHT22;31237;45.586;13.782;2023-11-18T03:52:25;7.20;72.20
45491;DHT22;31237;45.586;13.782;2023-11-18T03:54:53;7.20;72.00
45491;DHT22;31237;45.586;13.782;2023-11-18T03:57:19;7.20;71.80
45491;DHT22;31237;45.586;13.782;2023-11-18T03:59:44;7.20;71.90
45491;DHT22;31237;45.586;13.782;2023-11-18T04:02:10;7.20;71.90
45491;DHT22;31237;45.586;13.782;2023-11-18T04:04:37;7.20;71.90
45491;DHT22;31237;45.586;13.782;2023-11-18T04:07:03;7.20;72.00
45491;DHT22;31237;45.586;13.782;2023-11-18T04:09:29;7.20;72.10
45491;DHT22;31237;45.586;13.782;2023-11-18T04:11:55;7.20;72.20
45491;DHT22;31237;45.586;13.782;2023-11-18T04:14:21;7.20;72.10
45491;DHT22;31237;45.586;13.782;2023-11-18T04:16:48;7.20;72.10
45491;DHT22;31237;45.586;13.782;2023-11-18T04:19:14;7.20;72.20
45491;DHT22;31237;45.586;13.782;2023-11-18T04:21:41;7.20;72.10
45491;DHT22;31237;45.586;13.782;2023-11-18T04:24:07;7.20;72.80
45491;DHT22;31237;45.586;13.782;2023-11-18T04:26:32;7.10;72.00
45491;DHT22;31237;45.586;13.782;2023-11-18T04:28:58;7.10;72.10
45491;DHT22;31237;45.586;13.782;2023-11-18T04:31:25;7.10;72.00
45491;DHT22;31237;45.586;13.782;2023-11-18T04:33:50;7.10;72.00
45491;DHT22;31237;45.586;13.782;2023-11-18T04:36:16;7.10;71.90
45491;DHT22;31237;45.586;13.782;2023-11-18T04:38:43;7.20;72.60
45491;DHT22;31237;45.586;13.782;2023-11-18T04:41:11;7.20;71.90
45491;DHT22;31237;45.586;13.782;2023-11-18T04:43:37;7.10;71.80
45491;DHT22;31237;45.586;13.782;2023-11-18T04:46:05;7.20;71.90
45491;DHT22;31237;45.586;13.782;2023-11-18T04:48:31;7.20;71.80
45491;DHT22;31237;45.586;13.782;2023-11-18T04:50:56;7.20;71.80
45491;DHT22;31237;45.586;13.782;2023-11-18T04:53:22;7.20;71.70
45491;DHT22;31237;45.586;13.782;2023-11-18T04:55:48;7.20;71.60
45491;DHT22;31237;45.586;13.782;2023-11-18T04:58:13;7.20;71.30
45491;DHT22;31237;45.586;13.782;2023-11-18T05:00:39;7.20;71.10
45491;DHT22;31237;45.586;13.782;2023-11-18T05:03:06;7.30;71.20
45491;DHT22;31237;45.586;13.782;2023-11-18T05:05:39;7.30;71.00
45491;DHT22;31237;45.586;13.782;2023-11-18T05:08:05;7.30;70.90
45491;DHT22;31237;45.586;13.782;2023-11-18T05:10:35;7.20;70.90
45491;DHT22;31237;45.586;13.782;2023-11-18T05:13:02;7.30;71.10
45491;DHT22;31237;45.586;13.782;2023-11-18T05:15:27;7.30;71.30
45491;DHT22;31237;45.586;13.782;2023-11-18T05:17:55;7.20;71.40
45491;DHT22;31237;45.586;13.782;2023-11-18T05:20:21;7.20;71.50
45491;DHT22;31237;45.586;13.782;2023-11-18T05:22:47;7.20;71.60
45491;DHT22;31237;45.586;13.782;2023-11-18T05:25:13;7.20;71.60
45491;DHT22;31237;45.586;13.782;2023-11-18T05:27:39;7.20;71.80
45491;DHT22;31237;45.586;13.782;2023-11-18T05:30:10;7.10;71.80
45491;DHT22;31237;45.586;13.782;2023-11-18T05:32:36;7.20;71.70
45491;DHT22;31237;45.586;13.782;2023-11-18T05:35:03;7.10;71.70
45491;DHT22;31237;45.586;13.782;2023-11-18T05:37:30;7.20;71.80
45491;DHT22;31237;45.586;13.782;2023-11-18T05:40:01;7.20;71.80
45491;DHT22;31237;45.586;13.782;2023-11-18T05:42:33;7.20;71.80
45491;DHT22;31237;45.586;13.782;2023-11-18T05:44:59;7.20;71.90
45491;DHT22;31237;45.586;13.782;2023-11-18T05:47:26;7.20;71.90
45491;DHT22;31237;45.586;13.782;2023-11-18T05:49:53;7.20;71.90
45491;DHT22;31237;45.586;13.782;2023-11-18T05:52:20;7.20;71.80
45491;DHT22;31237;45.586;13.782;2023-11-18T05:54:46;7.30;71.70
45491;DHT22;31237;45.586;13.782;2023-11-18T05:57:15;7.30;71.60
45491;DHT22;31237;45.586;13.782;2023-11-18T05:59:42;7.30;71.30
45491;DHT22;31237;45.586;13.782;2023-11-18T06:02:08;7.40;71.10
45491;DHT22;31237;45.586;13.782;2023-11-18T06:04:34;7.40;70.80
45491;DHT22;31237;45.586;13.782;2023-11-18T06:07:00;7.40;70.90
45491;DHT22;31237;45.586;13.782;2023-11-18T06:09:28;7.40;70.90
45491;DHT22;31237;45.586;13.782;2023-11-18T06:11:54;7.40;71.10
45491;DHT22;31237;45.586;13.782;2023-11-18T06:14:20;7.40;71.20
45491;DHT22;31237;45.586;13.782;2023-11-18T06:16:49;7.40;71.30
45491;DHT22;31237;45.586;13.782;2023-11-18T06:19:16;7.40;71.30
45491;DHT22;31237;45.586;13.782;2023-11-18T06:21:42;7.40;71.40
45491;DHT22;31237;45.586;13.782;2023-11-18T06:24:07;7.40;71.40
45491;DHT22;31237;45.586;13.782;2023-11-18T06:26:36;7.40;71.50
45491;DHT22;31237;45.586;13.782;2023-11-18T06:29:03;7.40;71.50
45491;DHT22;31237;45.586;13.782;2023-11-18T06:31:30;7.40;71.50
45491;DHT22;31237;45.586;13.782;2023-11-18T06:33:56;7.40;71.50
45491;DHT22;31237;45.586;13.782;2023-11-18T06:36:22;7.50;71.50
45491;DHT22;31237;45.586;13.782;2023-11-18T06:38:50;7.50;71.40
45491;DHT22;31237;45.586;13.782;2023-11-18T06:41:18;7.60;71.30
45491;DHT22;31237;45.586;13.782;2023-11-18T06:43:45;7.60;71.30
45491;DHT22;31237;45.586;13.782;2023-11-18T06:46:22;7.60;71.40
45491;DHT22;31237;45.586;13.782;2023-11-18T06:48:52;7.70;71.40
45491;DHT22;31237;45.586;13.782;2023-11-18T06:51:23;7.60;71.70
45491;DHT22;31237;45.586;13.782;2023-11-18T06:53:59;7.60;72.10
45491;DHT22;31237;45.586;13.782;2023-11-18T06:56:25;7.60;72.50
45491;DHT22;31237;45.586;13.782;2023-11-18T06:58:51;7.60;73.00
45491;DHT22;31237;45.586;13.782;2023-11-18T07:01:17;7.60;73.30
45491;DHT22;31237;45.586;13.782;2023-11-18T07:03:48;7.60;73.70
45491;DHT22;31237;45.586;13.782;2023-11-18T07:06:17;7.50;74.10
45491;DHT22;31237;45.586;13.782;2023-11-18T07:08:50;7.50;74.50
45491;DHT22;31237;45.586;13.782;2023-11-18T07:11:16;7.50;74.90
45491;DHT22;31237;45.586;13.782;2023-11-18T07:13:43;7.50;75.20
45491;DHT22;31237;45.586;13.782;2023-11-18T07:16:10;7.50;75.40
45491;DHT22;31237;45.586;13.782;2023-11-18T07:18:37;7.60;75.70
45491;DHT22;31237;45.586;13.782;2023-11-18T07:21:04;7.60;75.90
45491;DHT22;31237;45.586;13.782;2023-11-18T07:23:33;7.70;76.00
45491;DHT22;31237;45.586;13.782;2023-11-18T07:26:00;7.70;76.10
45491;DHT22;31237;45.586;13.782;2023-11-18T07:28:26;7.70;76.30
45491;DHT22;31237;45.586;13.782;2023-11-18T07:30:53;7.80;76.50
45491;DHT22;31237;45.586;13.782;2023-11-18T07:33:19;7.80;76.60
45491;DHT22;31237;45.586;13.782;2023-11-18T07:35:46;7.80;76.80
45491;DHT22;31237;45.586;13.782;2023-11-18T07:38:13;7.90;77.20
45491;DHT22;31237;45.586;13.782;2023-11-18T07:40:40;7.90;77.20
45491;DHT22;31237;45.586;13.782;2023-11-18T07:43:13;8.00;77.30
45491;DHT22;31237;45.586;13.782;2023-11-18T07:45:40;8.00;77.30
45491;DHT22;31237;45.586;13.782;2023-11-18T07:48:07;8.10;77.40
45491;DHT22;31237;45.586;13.782;2023-11-18T07:50:36;8.10;77.50
45491;DHT22;31237;45.586;13.782;2023-11-18T07:53:03;8.20;77.70
45491;DHT22;31237;45.586;13.782;2023-11-18T07:55:29;8.20;77.70
45491;DHT22;31237;45.586;13.782;2023-11-18T07:57:55;8.20;77.80
45491;DHT22;31237;45.586;13.782;2023-11-18T08:00:21;8.30;78.00
45491;DHT22;31237;45.586;13.782;2023-11-18T08:02:49;8.30;78.20
45491;DHT22;31237;45.586;13.782;2023-11-18T08:05:15;8.40;78.50
45491;DHT22;31237;45.586;13.782;2023-11-18T08:07:43;8.40;78.90
45491;DHT22;31237;45.586;13.782;2023-11-18T08:10:10;8.50;79.20
45491;DHT22;31237;45.586;13.782;2023-11-18T08:12:44;8.60;79.50
45491;DHT22;31237;45.586;13.782;2023-11-18T08:15:10;8.60;79.70
45491;DHT22;31237;45.586;13.782;2023-11-18T08:17:36;8.70;79.90
45491;DHT22;31237;45.586;13.782;2023-11-18T08:20:02;8.80;80.00
45491;DHT22;31237;45.586;13.782;2023-11-18T08:22:40;8.80;80.20
45491;DHT22;31237;45.586;13.782;2023-11-18T08:25:06;8.90;80.50
45491;DHT22;31237;45.586;13.782;2023-11-18T08:27:34;8.90;80.90
45491;DHT22;31237;45.586;13.782;2023-11-18T08:30:01;9.00;81.20
45491;DHT22;31237;45.586;13.782;2023-11-18T08:32:31;9.00;81.40
45491;DHT22;31237;45.586;13.782;2023-11-18T08:34:57;9.10;81.70
45491;DHT22;31237;45.586;13.782;2023-11-18T08:37:22;9.20;81.80
45491;DHT22;31237;45.586;13.782;2023-11-18T08:39:48;9.20;81.80
45491;DHT22;31237;45.586;13.782;2023-11-18T08:42:14;9.30;81.80
45491;DHT22;31237;45.586;13.782;2023-11-18T08:44:40;9.30;81.80
45491;DHT22;31237;45.586;13.782;2023-11-18T08:47:06;9.40;82.00
45491;DHT22;31237;45.586;13.782;2023-11-18T08:49:34;9.50;81.70
45491;DHT22;31237;45.586;13.782;2023-11-18T08:52:00;9.50;81.30
45491;DHT22;31237;45.586;13.782;2023-11-18T08:54:27;9.60;81.00
45491;DHT22;31237;45.586;13.782;2023-11-18T08:57:04;9.70;80.70
45491;DHT22;31237;45.586;13.782;2023-11-18T08:59:49;9.70;80.20
45491;DHT22;31237;45.586;13.782;2023-11-18T09:02:17;9.80;79.60
45491;DHT22;31237;45.586;13.782;2023-11-18T09:04:49;9.90;79.30
45491;DHT22;31237;45.586;13.782;2023-11-18T09:07:15;9.90;78.80
45491;DHT22;31237;45.586;13.782;2023-11-18T09:09:41;10.00;78.40
45491;DHT22;31237;45.586;13.782;2023-11-18T09:12:07;10.00;77.90
45491;DHT22;31237;45.586;13.782;2023-11-18T09:14:34;10.10;77.70
45491;DHT22;31237;45.586;13.782;2023-11-18T09:16:59;10.20;77.20
45491;DHT22;31237;45.586;13.782;2023-11-18T09:19:30;10.20;76.80
45491;DHT22;31237;45.586;13.782;2023-11-18T09:21:59;10.30;76.30
45491;DHT22;31237;45.586;13.782;2023-11-18T09:24:25;10.30;76.60
45491;DHT22;31237;45.586;13.782;2023-11-18T09:26:51;10.40;77.20
45491;DHT22;31237;45.586;13.782;2023-11-18T09:29:17;10.50;77.40
45491;DHT22;31237;45.586;13.782;2023-11-18T09:31:49;10.50;77.60
45491;DHT22;31237;45.586;13.782;2023-11-18T09:34:16;10.60;77.60
45491;DHT22;31237;45.586;13.782;2023-11-18T09:36:45;10.70;77.70
45491;DHT22;31237;45.586;13.782;2023-11-18T09:39:14;10.70;77.70
45491;DHT22;31237;45.586;13.782;2023-11-18T09:41:57;10.80;77.80
45491;DHT22;31237;45.586;13.782;2023-11-18T09:44:24;10.80;77.70
45491;DHT22;31237;45.586;13.782;2023-11-18T09:46:57;10.80;77.40
45491;DHT22;31237;45.586;13.782;2023-11-18T09:49:32;10.90;77.80
45491;DHT22;31237;45.586;13.782;2023-11-18T09:52:05;11.00;76.60
45491;DHT22;31237;45.586;13.782;2023-11-18T09:55:09;11.10;76.90
45491;DHT22;31237;45.586;13.782;2023-11-18T09:57:40;11.20;75.70
45491;DHT22;31237;45.586;13.782;2023-11-18T10:00:11;11.20;75.40
45491;DHT22;31237;45.586;13.782;2023-11-18T10:02:52;11.30;75.70
45491;DHT22;31237;45.586;13.782;2023-11-18T10:05:22;11.30;74.90
45491;DHT22;31237;45.586;13.782;2023-11-18T10:07:52;11.40;74.90
45491;DHT22;31237;45.586;13.782;2023-11-18T10:10:19;11.50;74.80
45491;DHT22;31237;45.586;13.782;2023-11-18T10:12:47;11.50;74.60
45491;DHT22;31237;45.586;13.782;2023-11-18T10:15:23;11.60;74.60
45491;DHT22;31237;45.586;13.782;2023-11-18T10:17:51;11.60;74.50
45491;DHT22;31237;45.586;13.782;2023-11-18T10:23:14;11.80;74.30
45491;DHT22;31237;45.586;13.782;2023-11-18T10:25:54;11.80;73.40
45491;DHT22;31237;45.586;13.782;2023-11-18T10:31:08;12.00;72.40
45491;DHT22;31237;45.586;13.782;2023-11-18T10:33:39;12.00;71.70
45491;DHT22;31237;45.586;13.782;2023-11-18T10:36:17;12.10;71.20
45491;DHT22;31237;45.586;13.782;2023-11-18T10:38:48;12.20;71.30
45491;DHT22;31237;45.586;13.782;2023-11-18T10:41:18;12.20;71.20
45491;DHT22;31237;45.586;13.782;2023-11-18T10:43:45;12.20;70.90
45491;DHT22;31237;45.586;13.782;2023-11-18T10:46:15;12.30;70.60
45491;DHT22;31237;45.586;13.782;2023-11-18T10:51:12;12.40;70.20
45491;DHT22;31237;45.586;13.782;2023-11-18T10:53:46;12.50;70.10
45491;DHT22;31237;45.586;13.782;2023-11-18T10:56:22;12.50;70.20
45491;DHT22;31237;45.586;13.782;2023-11-18T10:59:07;12.60;70.30
45491;DHT22;31237;45.586;13.782;2023-11-18T11:01:33;12.60;70.40
45491;DHT22;31237;45.586;13.782;2023-11-18T11:04:04;12.60;70.40
45491;DHT22;31237;45.586;13.782;2023-11-18T11:06:32;12.60;70.40
45491;DHT22;31237;45.586;13.782;2023-11-18T11:09:00;12.60;70.50
45491;DHT22;31237;45.586;13.782;2023-11-18T11:11:36;12.70;70.60
45491;DHT22;31237;45.586;13.782;2023-11-18T11:14:04;12.70;70.60
45491;DHT22;31237;45.586;13.782;2023-11-18T11:16:41;12.70;70.80
45491;DHT22;31237;45.586;13.782;2023-11-18T11:22:00;12.70;70.90
45491;DHT22;31237;45.586;13.782;2023-11-18T11:27:56;12.70;70.60
45491;DHT22;31237;45.586;13.782;2023-11-18T11:30:45;12.80;70.60
45491;DHT22;31237;45.586;13.782;2023-11-18T11:33:57;12.70;70.50
45491;DHT22;31237;45.586;13.782;2023-11-18T11:36:17;12.80;70.90
45491;DHT22;31237;45.586;13.782;2023-11-18T11:38:52;12.80;71.10
45491;DHT22;31237;45.586;13.782;2023-11-18T11:41:18;12.80;71.50
45491;DHT22;31237;45.586;13.782;2023-11-18T11:43:52;12.80;71.60
45491;DHT22;31237;45.586;13.782;2023-11-18T11:46:22;12.80;71.90
45491;DHT22;31237;45.586;13.782;2023-11-18T11:48:50;12.80;72.20
45491;DHT22;31237;45.586;13.782;2023-11-18T11:51:27;12.90;72.60
45491;DHT22;31237;45.586;13.782;2023-11-18T11:54:11;12.90;72.90
45491;DHT22;31237;45.586;13.782;2023-11-18T11:56:45;13.00;73.40
45491;DHT22;31237;45.586;13.782;2023-11-18T12:02:30;13.10;74.20
45491;DHT22;31237;45.586;13.782;2023-11-18T12:04:57;13.10;74.50
45491;DHT22;31237;45.586;13.782;2023-11-18T12:07:27;13.10;74.90
45491;DHT22;31237;45.586;13.782;2023-11-18T12:09:58;13.10;75.10
45491;DHT22;31237;45.586;13.782;2023-11-18T12:12:25;13.10;75.00
45491;DHT22;31237;45.586;13.782;2023-11-18T12:14:57;13.10;74.70
45491;DHT22;31237;45.586;13.782;2023-11-18T12:17:26;13.10;74.30
45491;DHT22;31237;45.586;13.782;2023-11-18T12:19:57;13.10;74.10
45491;DHT22;31237;45.586;13.782;2023-11-18T12:23:04;13.10;73.90
45491;DHT22;31237;45.586;13.782;2023-11-18T12:25:40;13.10;73.90
45491;DHT22;31237;45.586;13.782;2023-11-18T12:28:20;13.00;73.20
45491;DHT22;31237;45.586;13.782;2023-11-18T12:30:48;13.00;72.90
45491;DHT22;31237;45.586;13.782;2023-11-18T12:38:26;12.90;72.20
45491;DHT22;31237;45.586;13.782;2023-11-18T12:41:01;12.90;72.10
45491;DHT22;31237;45.586;13.782;2023-11-18T12:46:54;12.90;72.40
45491;DHT22;31237;45.586;13.782;2023-11-18T12:49:26;13.00;72.50
45491;DHT22;31237;45.586;13.782;2023-11-18T12:51:54;13.00;72.70
45491;DHT22;31237;45.586;13.782;2023-11-18T12:54:22;13.00;72.80
45491;DHT22;31237;45.586;13.782;2023-11-18T12:56:51;13.00;72.90
45491;DHT22;31237;45.586;13.782;2023-11-18T12:59:19;13.00;72.90
45491;DHT22;31237;45.586;13.782;2023-11-18T13:01:53;13.00;72.70
45491;DHT22;31237;45.586;13.782;2023-11-18T13:04:23;12.90;72.60
45491;DHT22;31237;45.586;13.782;2023-11-18T13:06:53;13.00;72.60
45491;DHT22;31237;45.586;13.782;2023-11-18T13:09:22;13.00;72.70
45491;DHT22;31237;45.586;13.782;2023-11-18T13:11:55;13.00;72.80
45491;DHT22;31237;45.586;13.782;2023-11-18T13:14:27;13.00;72.90
45491;DHT22;31237;45.586;13.782;2023-11-18T13:16:56;13.00;73.00
45491;DHT22;31237;45.586;13.782;2023-11-18T13:19:28;13.10;72.90
45491;DHT22;31237;45.586;13.782;2023-11-18T13:21:58;13.10;73.00
45491;DHT22;31237;45.586;13.782;2023-11-18T13:24:25;13.10;73.00
45491;DHT22;31237;45.586;13.782;2023-11-18T13:26:54;13.10;72.90
45491;DHT22;31237;45.586;13.782;2023-11-18T13:29:21;13.10;73.00
45491;DHT22;31237;45.586;13.782;2023-11-18T13:31:51;13.10;73.10
45491;DHT22;31237;45.586;13.782;2023-11-18T13:34:18;13.10;73.10
45491;DHT22;31237;45.586;13.782;2023-11-18T13:36:48;13.10;72.90
45491;DHT22;31237;45.586;13.782;2023-11-18T13:39:18;13.10;73.00
45491;DHT22;31237;45.586;13.782;2023-11-18T13:41:45;13.10;73.20
45491;DHT22;31237;45.586;13.782;2023-11-18T13:44:34;13.10;73.30
45491;DHT22;31237;45.586;13.782;2023-11-18T13:47:07;13.00;73.60
45491;DHT22;31237;45.586;13.782;2023-11-18T13:49:37;13.00;73.80
45491;DHT22;31237;45.586;13.782;2023-11-18T13:52:09;13.00;73.90
45491;DHT22;31237;45.586;13.782;2023-11-18T13:54:37;13.00;74.40
45491;DHT22;31237;45.586;13.782;2023-11-18T13:57:04;12.90;74.70
45491;DHT22;31237;45.586;13.782;2023-11-18T13:59:31;12.90;75.30
45491;DHT22;31237;45.586;13.782;2023-11-18T14:01:58;12.90;75.90
45491;DHT22;31237;45.586;13.782;2023-11-18T14:04:28;12.80;76.40
45491;DHT22;31237;45.586;13.782;2023-11-18T14:06:59;12.80;76.90
45491;DHT22;31237;45.586;13.782;2023-11-18T14:09:25;12.70;77.40
45491;DHT22;31237;45.586;13.782;2023-11-18T14:11:52;12.70;77.90
45491;DHT22;31237;45.586;13.782;2023-11-18T14:14:21;12.70;79.00
45491;DHT22;31237;45.586;13.782;2023-11-18T14:16:46;12.60;78.90
45491;DHT22;31237;45.586;13.782;2023-11-18T14:19:12;12.60;79.40
45491;DHT22;31237;45.586;13.782;2023-11-18T14:21:39;12.60;79.80
45491;DHT22;31237;45.586;13.782;2023-11-18T14:24:10;12.50;80.10
45491;DHT22;31237;45.586;13.782;2023-11-18T14:26:37;12.50;80.50
45491;DHT22;31237;45.586;13.782;2023-11-18T14:29:05;12.40;80.90
45491;DHT22;31237;45.586;13.782;2023-11-18T14:31:32;12.40;81.30
45491;DHT22;31237;45.586;13.782;2023-11-18T14:33:59;12.30;81.50
45491;DHT22;31237;45.586;13.782;2023-11-18T14:36:26;12.30;81.80
45491;DHT22;31237;45.586;13.782;2023-11-18T14:38:52;12.30;82.20
45491;DHT22;31237;45.586;13.782;2023-11-18T14:41:18;12.30;82.50
45491;DHT22;31237;45.586;13.782;2023-11-18T14:43:46;12.30;82.70
45491;DHT22;31237;45.586;13.782;2023-11-18T14:46:11;12.20;82.90
45491;DHT22;31237;45.586;13.782;2023-11-18T14:48:38;12.20;83.10
45491;DHT22;31237;45.586;13.782;2023-11-18T14:51:04;12.20;83.30
45491;DHT22;31237;45.586;13.782;2023-11-18T14:53:30;12.10;83.50
45491;DHT22;31237;45.586;13.782;2023-11-18T14:55:56;12.10;83.70
45491;DHT22;31237;45.586;13.782;2023-11-18T14:58:23;12.00;83.90
45491;DHT22;31237;45.586;13.782;2023-11-18T15:00:49;12.00;84.20
45491;DHT22;31237;45.586;13.782;2023-11-18T15:03:15;11.90;84.40
45491;DHT22;31237;45.586;13.782;2023-11-18T15:05:42;11.80;84.60
45491;DHT22;31237;45.586;13.782;2023-11-18T15:08:10;11.80;84.50
45491;DHT22;31237;45.586;13.782;2023-11-18T15:10:40;11.70;84.50
45491;DHT22;31237;45.586;13.782;2023-11-18T15:13:07;11.70;84.70
45491;DHT22;31237;45.586;13.782;2023-11-18T15:15:38;11.70;84.80
45491;DHT22;31237;45.586;13.782;2023-11-18T15:18:04;11.50;85.00
45491;DHT22;31237;45.586;13.782;2023-11-18T15:20:43;11.50;85.20
45491;DHT22;31237;45.586;13.782;2023-11-18T15:23:09;11.40;85.40
45491;DHT22;31237;45.586;13.782;2023-11-18T15:25:36;11.30;85.70
45491;DHT22;31237;45.586;13.782;2023-11-18T15:28:01;11.20;85.90
45491;DHT22;31237;45.586;13.782;2023-11-18T15:30:27;11.10;86.10
45491;DHT22;31237;45.586;13.782;2023-11-18T15:32:53;11.10;86.30
45491;DHT22;31237;45.586;13.782;2023-11-18T15:35:19;11.00;86.50
45491;DHT22;31237;45.586;13.782;2023-11-18T15:37:47;10.90;86.60
45491;DHT22;31237;45.586;13.782;2023-11-18T15:40:14;10.80;86.80
45491;DHT22;31237;45.586;13.782;2023-11-18T15:42:41;10.70;86.90
45491;DHT22;31237;45.586;13.782;2023-11-18T15:45:12;10.70;87.10
45491;DHT22;31237;45.586;13.782;2023-11-18T15:47:38;10.60;87.20
45491;DHT22;31237;45.586;13.782;2023-11-18T15:50:06;10.50;87.50
45491;DHT22;31237;45.586;13.782;2023-11-18T15:52:33;10.40;87.60
45491;DHT22;31237;45.586;13.782;2023-11-18T15:55:00;10.40;87.80
45491;DHT22;31237;45.586;13.782;2023-11-18T15:57:27;10.30;87.90
45491;DHT22;31237;45.586;13.782;2023-11-18T15:59:54;10.20;88.10